PWSweather.com
Personal Weather Stations
Station Observations
CANDIOTINO
Barrio Candioti Norte, Santa FeAR 3000

Barrio Candioti NorteSanta FeAR 3000

Lat: -31.632778, Lon: -60.695556

Elevation: 69

Station Type: WH-1081

http://www.eltiempoensantafe.com.ar

Latest ConditionsUpdated 7:00:01 PM GMT-03:57 Saturday, Feb 23, 2019
Currently Today's Max Today's Min Today's Average
Temperature 90.0°F32.2°C 94.1°F34.5°C 73.0°F22.8°C 84.5°F29.2°C
Dew Point 77.6°F25.3°C 79.1°F26.2°C 70.5°F21.4°C 74.9°F23.8°C
Winds 4.5 mph ESE7.2 kmh ESE 12.1 mph -19.5 kmh - - 5.0 mph 8.0 kmh
Wind Gusts 6.0 mph9.7 kmh 25.1 mph40.4 kmh - -
Humidity 67% 98% 57% 74%
Pressure 29.43 in996.6 mb 29.65 in1004.1 mb 29.42 in996.3 mb -
Precipitation - 1.10 in27.9 mm - -
Hour Temp Dew Point Humidity Winds Wind Gusts Pressure Precip Precip Rate Daily Precip Total
07:00 PM 90.0°F32.2°C 77.6°F25.3°C 67% 4.5 mph ESE7.2 kmh ESE 6.0 mph9.7 kmh 29.43 in996.6 mb 0.00 in0.0 mm 0.00 in0.0 mm 1.10 in27.9 mm
06:45 PM 90.9°F32.7°C 77.5°F25.3°C 65% 3.1 mph SE5.0 kmh SE 7.6 mph12.2 kmh 29.42 in996.3 mb 0.00 in0.0 mm 0.00 in0.0 mm 1.10 in27.9 mm
06:30 PM 91.4°F33.0°C 78.1°F25.6°C 65% 5.4 mph SE8.7 kmh SE 9.2 mph14.8 kmh 29.42 in996.3 mb 0.00 in0.0 mm 0.00 in0.0 mm 1.10 in27.9 mm
06:15 PM 90.1°F32.3°C 77.3°F25.2°C 66% 3.8 mph SE6.1 kmh SE 9.2 mph14.8 kmh 29.43 in996.6 mb 0.00 in0.0 mm 0.00 in0.0 mm 1.10 in27.9 mm
06:00 PM 89.6°F32.0°C 76.8°F24.9°C 66% 6.0 mph SE9.7 kmh SE 11.4 mph18.3 kmh 29.43 in996.6 mb 0.00 in0.0 mm 0.00 in0.0 mm 1.10 in27.9 mm
05:45 PM 90.9°F32.7°C 77.1°F25.1°C 64% 3.8 mph E6.1 kmh E 9.8 mph15.8 kmh 29.44 in997.0 mb 0.00 in0.0 mm 0.00 in0.0 mm 1.10 in27.9 mm
05:30 PM 94.1°F34.5°C 76.6°F24.8°C 57% 1.6 mph E2.6 kmh E 11.4 mph18.3 kmh 29.43 in996.6 mb 0.00 in0.0 mm 0.00 in0.0 mm 1.10 in27.9 mm
05:15 PM 93.2°F34.0°C 77.3°F25.2°C 60% 2.2 mph E3.5 kmh E 10.7 mph17.2 kmh 29.44 in997.0 mb 0.00 in0.0 mm 0.00 in0.0 mm 1.10 in27.9 mm
05:00 PM 89.4°F31.9°C 76.2°F24.6°C 65% 4.5 mph ESE7.2 kmh ESE 9.8 mph15.8 kmh 29.44 in997.0 mb 0.00 in0.0 mm 0.00 in0.0 mm 1.10 in27.9 mm
04:45 PM 88.5°F31.4°C 75.3°F24.1°C 65% 6.0 mph ESE9.7 kmh ESE 12.1 mph19.5 kmh 29.45 in997.3 mb 0.00 in0.0 mm 0.00 in0.0 mm 1.10 in27.9 mm
04:30 PM 89.4°F31.9°C 75.7°F24.3°C 64% 3.8 mph ESE6.1 kmh ESE 9.8 mph15.8 kmh 29.45 in997.3 mb 0.00 in0.0 mm 0.00 in0.0 mm 1.10 in27.9 mm
04:15 PM 90.1°F32.3°C 75.4°F24.1°C 62% 6.0 mph E9.7 kmh E 11.4 mph18.3 kmh 29.46 in997.6 mb 0.00 in0.0 mm 0.00 in0.0 mm 1.10 in27.9 mm
04:00 PM 90.0°F32.2°C 75.3°F24.1°C 62% 4.5 mph NE7.2 kmh NE 9.2 mph14.8 kmh 29.47 in998.0 mb 0.00 in0.0 mm 0.00 in0.0 mm 1.10 in27.9 mm
03:45 PM 91.2°F32.9°C 75.0°F23.9°C 59% 3.1 mph NE5.0 kmh NE 9.2 mph14.8 kmh 29.48 in998.3 mb 0.00 in0.0 mm 0.00 in0.0 mm 1.10 in27.9 mm
03:30 PM 91.9°F33.3°C 75.6°F24.2°C 59% 4.5 mph NE7.2 kmh NE 11.4 mph18.3 kmh 29.48 in998.3 mb 0.00 in0.0 mm 0.00 in0.0 mm 1.10 in27.9 mm
03:15 PM 91.6°F33.1°C 75.3°F24.1°C 59% 5.4 mph E8.7 kmh E 10.7 mph17.2 kmh 29.49 in998.6 mb 0.00 in0.0 mm 0.00 in0.0 mm 1.10 in27.9 mm
03:00 PM 90.3°F32.4°C 75.1°F23.9°C 61% 6.0 mph NE9.7 kmh NE 10.7 mph17.2 kmh 29.50 in999.0 mb 0.00 in0.0 mm 0.00 in0.0 mm 1.10 in27.9 mm
02:45 PM 91.4°F33.0°C 74.6°F23.7°C 58% 5.4 mph NE8.7 kmh NE 11.4 mph18.3 kmh 29.51 in999.3 mb 0.00 in0.0 mm 0.00 in0.0 mm 1.10 in27.9 mm
02:30 PM 90.1°F32.3°C 74.9°F23.8°C 61% 6.0 mph NE9.7 kmh NE 11.4 mph18.3 kmh 29.51 in999.3 mb 0.00 in0.0 mm 0.00 in0.0 mm 1.10 in27.9 mm
02:15 PM 89.6°F32.0°C 75.4°F24.1°C 63% 5.4 mph ENE8.7 kmh ENE 13.6 mph21.9 kmh 29.53 in1000.0 mb 0.00 in0.0 mm 0.00 in0.0 mm 1.10 in27.9 mm
02:00 PM 88.7°F31.5°C 75.0°F23.9°C 64% 3.8 mph E6.1 kmh E 12.1 mph19.5 kmh 29.54 in1000.3 mb 0.00 in0.0 mm 0.00 in0.0 mm 1.10 in27.9 mm
01:45 PM 87.4°F30.8°C 74.3°F23.5°C 65% 4.5 mph E7.2 kmh E 10.7 mph17.2 kmh 29.54 in1000.3 mb 0.00 in0.0 mm 0.00 in0.0 mm 1.10 in27.9 mm
01:30 PM 89.2°F31.8°C 75.1°F23.9°C 63% 4.5 mph E7.2 kmh E 7.6 mph12.2 kmh 29.55 in1000.7 mb 0.00 in0.0 mm 0.00 in0.0 mm 1.10 in27.9 mm
01:15 PM 87.3°F30.7°C 74.6°F23.7°C 66% 6.0 mph E9.7 kmh E 11.4 mph18.3 kmh 29.56 in1001.0 mb 0.00 in0.0 mm 0.00 in0.0 mm 1.10 in27.9 mm
01:00 PM 86.4°F30.2°C 73.7°F23.2°C 66% 4.5 mph E7.2 kmh E 11.4 mph18.3 kmh 29.57 in1001.4 mb 0.00 in0.0 mm 0.00 in0.0 mm 1.10 in27.9 mm
12:45 PM 84.6°F29.2°C 74.6°F23.7°C 72% 6.0 mph ESE9.7 kmh ESE 13.6 mph21.9 kmh 29.57 in1001.4 mb 0.00 in0.0 mm 0.00 in0.0 mm 1.10 in27.9 mm
12:30 PM 84.4°F29.1°C 76.4°F24.7°C 77% 3.8 mph E6.1 kmh E 9.2 mph14.8 kmh 29.57 in1001.4 mb 0.00 in0.0 mm 0.00 in0.0 mm 1.10 in27.9 mm
12:15 PM 78.6°F25.9°C 77.1°F25.1°C 95% 2.2 mph ENE3.5 kmh ENE 6.0 mph9.7 kmh 29.59 in1002.0 mb 0.00 in0.0 mm 0.00 in0.0 mm 1.10 in27.9 mm
12:00 PM 76.5°F24.7°C 75.3°F24.1°C 96% 1.6 mph ENE2.6 kmh ENE 5.4 mph8.7 kmh 29.60 in1002.4 mb 0.00 in0.0 mm 0.00 in0.0 mm 1.10 in27.9 mm
11:45 AM 75.6°F24.2°C 74.4°F23.6°C 96% 2.2 mph ENE3.5 kmh ENE 6.9 mph11.1 kmh 29.60 in1002.4 mb 0.04 in1.0 mm 0.00 in0.0 mm 1.10 in27.9 mm
11:30 AM 75.4°F24.1°C 74.2°F23.4°C 96% 3.1 mph ENE5.0 kmh ENE 9.2 mph14.8 kmh 29.59 in1002.0 mb 0.12 in3.0 mm 0.00 in0.0 mm 1.10 in27.9 mm
11:15 AM 74.8°F23.8°C 74.0°F23.3°C 97% 3.1 mph E5.0 kmh E 9.2 mph14.8 kmh 29.59 in1002.0 mb 0.27 in6.9 mm 0.00 in0.0 mm 1.10 in27.9 mm
11:00 AM 74.7°F23.7°C 73.8°F23.2°C 97% 2.2 mph E3.5 kmh E 7.6 mph12.2 kmh 29.59 in1002.0 mb 0.27 in6.9 mm 0.08 in2.0 mm 1.10 in27.9 mm
10:45 AM 73.9°F23.3°C 73.1°F22.8°C 97% 7.6 mph SE12.2 kmh SE 8.3 mph13.4 kmh 29.61 in1002.7 mb 0.21 in5.3 mm 0.24 in6.1 mm 1.04 in26.4 mm
10:30 AM 73.6°F23.1°C 72.7°F22.6°C 97% 12.1 mph S19.5 kmh S 24.4 mph39.3 kmh 29.64 in1003.7 mb 0.15 in3.8 mm 0.60 in15.2 mm 0.98 in24.9 mm
10:15 AM 73.4°F23.0°C 72.8°F22.7°C 98% 6.9 mph NE11.1 kmh NE 15.9 mph25.6 kmh 29.61 in1002.7 mb 0.00 in0.0 mm 0.00 in0.0 mm 0.83 in21.1 mm
10:00 AM 73.6°F23.1°C 72.7°F22.6°C 97% 7.6 mph E12.2 kmh E 16.8 mph27.0 kmh 29.59 in1002.0 mb 0.20 in5.1 mm 0.00 in0.0 mm 0.83 in21.1 mm
09:45 AM 73.6°F23.1°C 72.7°F22.6°C 97% 6.9 mph ESE11.1 kmh ESE 11.4 mph18.3 kmh 29.61 in1002.7 mb 0.83 in21.1 mm 0.00 in0.0 mm 0.83 in21.1 mm
09:30 AM 73.0°F22.8°C 71.6°F22.0°C 95% 6.9 mph NE11.1 kmh NE 11.4 mph18.3 kmh 29.62 in1003.0 mb 0.83 in21.1 mm 0.00 in0.0 mm 0.83 in21.1 mm
09:15 AM 73.4°F23.0°C 71.9°F22.2°C 95% 5.4 mph ESE8.7 kmh ESE 12.1 mph19.5 kmh 29.63 in1003.4 mb 0.83 in21.1 mm 0.80 in20.3 mm 0.83 in21.1 mm
09:00 AM 73.4°F23.0°C 70.7°F21.5°C 91% 3.1 mph W5.0 kmh W 18.3 mph29.5 kmh 29.64 in1003.7 mb 0.63 in16.0 mm 0.84 in21.3 mm 0.63 in16.0 mm
08:45 AM 77.4°F25.2°C 70.8°F21.6°C 80% 10.7 mph SE17.2 kmh SE 25.1 mph40.4 kmh 29.65 in1004.1 mb 0.00 in0.0 mm 0.00 in0.0 mm 0.00 in0.0 mm
08:30 AM 78.6°F25.9°C 70.5°F21.4°C 76% 12.1 mph ESE19.5 kmh ESE 19.7 mph31.7 kmh 29.58 in1001.7 mb 0.00 in0.0 mm 0.00 in0.0 mm 0.00 in0.0 mm
08:15 AM 79.7°F26.5°C 70.7°F21.5°C 74% 9.2 mph E14.8 kmh E 18.3 mph29.5 kmh 29.58 in1001.7 mb 0.00 in0.0 mm 0.00 in0.0 mm 0.00 in0.0 mm
08:00 AM 79.9°F26.6°C 70.9°F21.6°C 74% 6.9 mph SE11.1 kmh SE 14.5 mph23.3 kmh 29.60 in1002.4 mb 0.00 in0.0 mm 0.00 in0.0 mm 0.00 in0.0 mm
07:45 AM 79.9°F26.6°C 71.3°F21.8°C 75% 6.9 mph ESE11.1 kmh ESE 11.4 mph18.3 kmh 29.62 in1003.0 mb 0.00 in0.0 mm 0.00 in0.0 mm 0.00 in0.0 mm
07:30 AM 79.7°F26.5°C 71.1°F21.7°C 75% 5.4 mph SE8.7 kmh SE 14.5 mph23.3 kmh 29.61 in1002.7 mb 0.00 in0.0 mm 0.00 in0.0 mm 0.00 in0.0 mm
07:15 AM 79.7°F26.5°C 71.9°F22.2°C 77% 9.2 mph E14.8 kmh E 15.2 mph24.5 kmh 29.58 in1001.7 mb 0.00 in0.0 mm 0.00 in0.0 mm 0.00 in0.0 mm
07:00 AM 80.2°F26.8°C 72.8°F22.7°C 78% 7.6 mph ESE12.2 kmh ESE 15.2 mph24.5 kmh 29.60 in1002.4 mb 0.00 in0.0 mm 0.00 in0.0 mm 0.00 in0.0 mm
06:45 AM 80.6°F27.0°C 72.8°F22.7°C 77% 6.9 mph SE11.1 kmh SE 14.5 mph23.3 kmh 29.59 in1002.0 mb 0.00 in0.0 mm 0.00 in0.0 mm 0.00 in0.0 mm
06:30 AM 80.8°F27.1°C 73.0°F22.8°C 77% 9.2 mph SSE14.8 kmh SSE 15.2 mph24.5 kmh 29.59 in1002.0 mb 0.00 in0.0 mm 0.00 in0.0 mm 0.00 in0.0 mm
06:15 AM 82.6°F28.1°C 75.1°F23.9°C 78% 11.4 mph S18.3 kmh S 17.4 mph28.0 kmh 29.59 in1002.0 mb 0.00 in0.0 mm 0.00 in0.0 mm 0.00 in0.0 mm
06:00 AM 83.8°F28.8°C 74.7°F23.7°C 74% 5.4 mph S8.7 kmh S 10.7 mph17.2 kmh 29.59 in1002.0 mb 0.00 in0.0 mm 0.00 in0.0 mm 0.00 in0.0 mm
05:45 AM 84.9°F29.4°C 72.8°F22.7°C 67% 5.4 mph SW8.7 kmh SW 8.3 mph13.4 kmh 29.61 in1002.7 mb 0.00 in0.0 mm 0.00 in0.0 mm 0.00 in0.0 mm
05:30 AM 84.4°F29.1°C 72.7°F22.6°C 68% 2.2 mph W3.5 kmh W 4.5 mph7.2 kmh 29.57 in1001.4 mb 0.00 in0.0 mm 0.00 in0.0 mm 0.00 in0.0 mm
05:15 AM 84.2°F29.0°C 73.4°F23.0°C 70% 0.7 mph SW1.1 kmh SW 7.6 mph12.2 kmh 29.57 in1001.4 mb 0.00 in0.0 mm 0.00 in0.0 mm 0.00 in0.0 mm
05:00 AM 84.4°F29.1°C 74.4°F23.6°C 72% 1.6 mph WSW2.6 kmh WSW 7.6 mph12.2 kmh 29.57 in1001.4 mb 0.00 in0.0 mm 0.00 in0.0 mm 0.00 in0.0 mm
04:45 AM 85.3°F29.6°C 74.5°F23.6°C 70% 4.5 mph WSW7.2 kmh WSW 9.8 mph15.8 kmh 29.57 in1001.4 mb 0.00 in0.0 mm 0.00 in0.0 mm 0.00 in0.0 mm
04:30 AM 86.2°F30.1°C 73.6°F23.1°C 66% 4.5 mph NNW7.2 kmh NNW 8.3 mph13.4 kmh 29.54 in1000.3 mb 0.00 in0.0 mm 0.00 in0.0 mm 0.00 in0.0 mm
04:15 AM 86.4°F30.2°C 73.3°F22.9°C 65% 4.5 mph N7.2 kmh N 11.4 mph18.3 kmh 29.54 in1000.3 mb 0.00 in0.0 mm 0.00 in0.0 mm 0.00 in0.0 mm
04:00 AM 86.4°F30.2°C 73.3°F22.9°C 65% 4.5 mph N7.2 kmh N 13.0 mph20.9 kmh 29.54 in1000.3 mb 0.00 in0.0 mm 0.00 in0.0 mm 0.00 in0.0 mm
03:45 AM 86.5°F30.3°C 73.4°F23.0°C 65% 4.5 mph N7.2 kmh N 13.0 mph20.9 kmh 29.54 in1000.3 mb 0.00 in0.0 mm 0.00 in0.0 mm 0.00 in0.0 mm
03:30 AM 86.2°F30.1°C 74.4°F23.6°C 68% 6.0 mph N9.7 kmh N 9.8 mph15.8 kmh 29.54 in1000.3 mb 0.00 in0.0 mm 0.00 in0.0 mm 0.00 in0.0 mm
03:15 AM 85.8°F29.9°C 76.6°F24.8°C 74% 4.5 mph N7.2 kmh N 11.4 mph18.3 kmh 29.54 in1000.3 mb 0.00 in0.0 mm 0.00 in0.0 mm 0.00 in0.0 mm
03:00 AM 86.0°F30.0°C 76.8°F24.9°C 74% 5.4 mph N8.7 kmh N 11.4 mph18.3 kmh 29.56 in1001.0 mb 0.00 in0.0 mm 0.00 in0.0 mm 0.00 in0.0 mm
02:45 AM 86.2°F30.1°C 77.4°F25.2°C 75% 3.1 mph N5.0 kmh N 8.3 mph13.4 kmh 29.58 in1001.7 mb 0.00 in0.0 mm 0.00 in0.0 mm 0.00 in0.0 mm
02:30 AM 86.5°F30.3°C 77.3°F25.2°C 74% 2.2 mph N3.5 kmh N 8.3 mph13.4 kmh 29.59 in1002.0 mb 0.00 in0.0 mm 0.00 in0.0 mm 0.00 in0.0 mm
02:15 AM 87.1°F30.6°C 77.4°F25.2°C 73% 6.9 mph N11.1 kmh N 9.8 mph15.8 kmh 29.59 in1002.0 mb 0.00 in0.0 mm 0.00 in0.0 mm 0.00 in0.0 mm
02:00 AM 87.4°F30.8°C 77.8°F25.4°C 73% 3.1 mph NNE5.0 kmh NNE 11.4 mph18.3 kmh 29.61 in1002.7 mb 0.00 in0.0 mm 0.00 in0.0 mm 0.00 in0.0 mm
01:45 AM 87.4°F30.8°C 78.2°F25.7°C 74% 3.1 mph NNE5.0 kmh NNE 9.2 mph14.8 kmh 29.60 in1002.4 mb 0.00 in0.0 mm 0.00 in0.0 mm 0.00 in0.0 mm
01:30 AM 87.8°F31.0°C 78.1°F25.6°C 73% 2.2 mph N3.5 kmh N 9.8 mph15.8 kmh 29.60 in1002.4 mb 0.00 in0.0 mm 0.00 in0.0 mm 0.00 in0.0 mm
01:15 AM 87.8°F31.0°C 78.6°F25.9°C 74% 3.8 mph NNE6.1 kmh NNE 6.0 mph9.7 kmh 29.61 in1002.7 mb 0.00 in0.0 mm 0.00 in0.0 mm 0.00 in0.0 mm
01:00 AM 88.0°F31.1°C 78.7°F25.9°C 74% 4.5 mph NE7.2 kmh NE 6.9 mph11.1 kmh 29.63 in1003.4 mb 0.00 in0.0 mm 0.00 in0.0 mm 0.00 in0.0 mm
12:45 AM 88.3°F31.3°C 79.1°F26.2°C 74% 2.2 mph NE3.5 kmh NE 6.0 mph9.7 kmh 29.64 in1003.7 mb 0.00 in0.0 mm 0.00 in0.0 mm 0.00 in0.0 mm
12:30 AM 88.7°F31.5°C 79.0°F26.1°C 73% 2.2 mph NE3.5 kmh NE 6.9 mph11.1 kmh 29.64 in1003.7 mb 0.00 in0.0 mm 0.00 in0.0 mm 0.00 in0.0 mm
12:15 AM 88.9°F31.6°C 78.8°F26.0°C 72% 2.2 mph NE3.5 kmh NE 6.0 mph9.7 kmh 29.65 in1004.1 mb 0.00 in0.0 mm 0.00 in0.0 mm 0.00 in0.0 mm
12:00 AM 89.1°F31.7°C 78.9°F26.1°C 72% 2.2 mph NE3.5 kmh NE 6.9 mph11.1 kmh 29.65 in1004.1 mb 0.00 in0.0 mm 0.00 in0.0 mm 0.00 in0.0 mm